sensor_id;sensor_type;location;lat;lon;timestamp;pressure;altitude;pressure_sealevel;temperature;humidity
19789;BME280;10054;59.332;18.244;2023-09-19T00:00:47;99835.19;;;16.02;100.00
19789;BME280;10054;59.332;18.244;2023-09-19T00:03:17;99832.52;;;16.02;100.00
19789;BME280;10054;59.332;18.244;2023-09-19T00:05:46;99822.57;;;16.04;100.00
19789;BME280;10054;59.332;18.244;2023-09-19T00:08:15;99826.91;;;16.05;100.00
19789;BME280;10054;59.332;18.244;2023-09-19T00:10:44;99815.77;;;16.06;100.00
19789;BME280;10054;59.332;18.244;2023-09-19T00:13:13;99816.61;;;16.06;100.00
19789;BME280;10054;59.332;18.244;2023-09-19T00:15:45;99802.81;;;16.07;100.00
19789;BME280;10054;59.332;18.244;2023-09-19T00:18:21;99811.48;;;16.09;100.00
19789;BME280;10054;59.332;18.244;2023-09-19T00:20:50;99804.67;;;16.10;100.00
19789;BME280;10054;59.332;18.244;2023-09-19T00:23:19;99800.04;;;16.13;100.00
19789;BME280;10054;59.332;18.244;2023-09-19T00:25:48;99790.73;;;16.13;100.00
19789;BME280;10054;59.332;18.244;2023-09-19T00:28:18;99791.26;;;16.16;100.00
19789;BME280;10054;59.332;18.244;2023-09-19T00:30:48;99784.11;;;16.17;100.00
19789;BME280;10054;59.332;18.244;2023-09-19T00:33:21;99778.64;;;16.18;100.00
19789;BME280;10054;59.332;18.244;2023-09-19T00:35:52;99770.01;;;16.20;100.00
19789;BME280;10054;59.332;18.244;2023-09-19T00:38:21;99769.70;;;16.23;100.00
19789;BME280;10054;59.332;18.244;2023-09-19T00:40:52;99760.39;;;16.23;100.00
19789;BME280;10054;59.332;18.244;2023-09-19T00:43:21;99751.76;;;16.25;100.00
19789;BME280;10054;59.332;18.244;2023-09-19T00:45:54;99758.11;;;16.28;100.00
19789;BME280;10054;59.332;18.244;2023-09-19T00:48:24;99749.47;;;16.30;100.00
19789;BME280;10054;59.332;18.244;2023-09-19T00:50:56;99747.16;;;16.31;100.00
19789;BME280;10054;59.332;18.244;2023-09-19T00:53:25;99747.83;;;16.33;100.00
19789;BME280;10054;59.332;18.244;2023-09-19T00:55:54;99744.49;;;16.35;100.00
19789;BME280;10054;59.332;18.244;2023-09-19T00:58:23;99745.33;;;16.36;100.00
19789;BME280;10054;59.332;18.244;2023-09-19T01:00:53;99749.66;;;16.37;100.00
19789;BME280;10054;59.332;18.244;2023-09-19T01:03:23;99740.34;;;16.37;100.00
19789;BME280;10054;59.332;18.244;2023-09-19T01:05:52;99734.37;;;16.39;100.00
19789;BME280;10054;59.332;18.244;2023-09-19T01:08:22;99734.72;;;16.40;100.00
19789;BME280;10054;59.332;18.244;2023-09-19T01:10:59;99730.07;;;16.42;100.00
19789;BME280;10054;59.332;18.244;2023-09-19T01:21:46;99699.33;;;16.48;100.00
19789;BME280;10054;59.332;18.244;2023-09-19T01:24:34;99695.18;;;16.49;100.00
19789;BME280;10054;59.332;18.244;2023-09-19T01:29:42;99680.72;;;16.52;100.00
19789;BME280;10054;59.332;18.244;2023-09-19T01:32:21;99672.23;;;16.52;100.00
19789;BME280;10054;59.332;18.244;2023-09-19T01:34:56;99661.43;;;16.54;100.00
19789;BME280;10054;59.332;18.244;2023-09-19T01:37:27;99654.28;;;16.54;100.00
19789;BME280;10054;59.332;18.244;2023-09-19T01:39:58;99643.13;;;16.55;100.00
19789;BME280;10054;59.332;18.244;2023-09-19T01:43:02;99646.97;;;16.56;100.00
19789;BME280;10054;59.332;18.244;2023-09-19T01:45:46;99642.14;;;16.56;100.00
19789;BME280;10054;59.332;18.244;2023-09-19T01:50:57;99638.17;;;16.60;100.00
19789;BME280;10054;59.332;18.244;2023-09-19T01:53:27;99632.34;;;16.60;100.00
19789;BME280;10054;59.332;18.244;2023-09-19T01:55:58;99621.53;;;16.62;100.00
19789;BME280;10054;59.332;18.244;2023-09-19T01:58:32;99615.72;;;16.62;100.00
19789;BME280;10054;59.332;18.244;2023-09-19T02:01:01;99604.56;;;16.63;100.00
19789;BME280;10054;59.332;18.244;2023-09-19T02:03:34;99607.23;;;16.63;100.00
19789;BME280;10054;59.332;18.244;2023-09-19T02:06:05;99594.75;;;16.63;100.00
19789;BME280;10054;59.332;18.244;2023-09-19T02:08:35;99585.92;;;16.63;100.00
19789;BME280;10054;59.332;18.244;2023-09-19T02:11:04;99572.44;;;16.60;100.00
19789;BME280;10054;59.332;18.244;2023-09-19T02:13:33;99569.11;;;16.62;100.00
19789;BME280;10054;59.332;18.244;2023-09-19T02:16:02;99574.94;;;16.62;100.00
19789;BME280;10054;59.332;18.244;2023-09-19T02:18:31;99564.45;;;16.60;100.00
19789;BME280;10054;59.332;18.244;2023-09-19T02:21:02;99550.30;;;16.60;100.00
19789;BME280;10054;59.332;18.244;2023-09-19T02:23:32;99551.97;;;16.61;100.00
19789;BME280;10054;59.332;18.244;2023-09-19T02:26:00;99555.12;;;16.60;100.00
19789;BME280;10054;59.332;18.244;2023-09-19T02:28:29;99554.29;;;16.60;100.00
19789;BME280;10054;59.332;18.244;2023-09-19T02:30:59;99552.96;;;16.60;100.00
19789;BME280;10054;59.332;18.244;2023-09-19T02:33:29;99556.30;;;16.62;100.00
19789;BME280;10054;59.332;18.244;2023-09-19T02:35:59;99544.97;;;16.60;100.00
19789;BME280;10054;59.332;18.244;2023-09-19T02:38:35;99532.83;;;16.61;100.00
19789;BME280;10054;59.332;18.244;2023-09-19T02:41:04;99524.34;;;16.62;100.00
19789;BME280;10054;59.332;18.244;2023-09-19T02:43:33;99521.68;;;16.62;100.00
19789;BME280;10054;59.332;18.244;2023-09-19T02:46:03;99514.86;;;16.63;100.00
19789;BME280;10054;59.332;18.244;2023-09-19T02:48:33;99510.03;;;16.63;100.00
19789;BME280;10054;59.332;18.244;2023-09-19T02:51:03;99504.21;;;16.63;100.00
19789;BME280;10054;59.332;18.244;2023-09-19T02:53:32;99505.41;;;16.65;100.00
19789;BME280;10054;59.332;18.244;2023-09-19T02:56:01;99497.42;;;16.65;100.00
19789;BME280;10054;59.332;18.244;2023-09-19T02:58:31;99485.44;;;16.65;100.00
19789;BME280;10054;59.332;18.244;2023-09-19T03:01:09;99467.30;;;16.64;100.00
19789;BME280;10054;59.332;18.244;2023-09-19T03:03:41;99471.76;;;16.64;100.00
19789;BME280;10054;59.332;18.244;2023-09-19T03:06:10;99452.78;;;16.63;100.00
19789;BME280;10054;59.332;18.244;2023-09-19T03:08:41;99453.62;;;16.63;100.00
19789;BME280;10054;59.332;18.244;2023-09-19T03:11:10;99447.80;;;16.64;100.00
19789;BME280;10054;59.332;18.244;2023-09-19T03:13:40;99440.17;;;16.65;100.00
19789;BME280;10054;59.332;18.244;2023-09-19T03:16:10;99436.17;;;16.65;100.00
19789;BME280;10054;59.332;18.244;2023-09-19T03:18:40;99426.48;;;16.64;100.00
19789;BME280;10054;59.332;18.244;2023-09-19T03:21:08;99423.83;;;16.64;100.00
19789;BME280;10054;59.332;18.244;2023-09-19T03:23:37;99408.72;;;16.64;100.00
19789;BME280;10054;59.332;18.244;2023-09-19T03:26:06;99404.72;;;16.64;100.00
19789;BME280;10054;59.332;18.244;2023-09-19T03:28:36;99406.88;;;16.65;100.00
19789;BME280;10054;59.332;18.244;2023-09-19T03:31:05;99402.53;;;16.64;100.00
19789;BME280;10054;59.332;18.244;2023-09-19T03:33:36;99395.73;;;16.65;100.00
19789;BME280;10054;59.332;18.244;2023-09-19T03:36:05;99387.88;;;16.64;100.00
19789;BME280;10054;59.332;18.244;2023-09-19T03:38:35;99369.61;;;16.65;100.00
19789;BME280;10054;59.332;18.244;2023-09-19T03:41:03;99367.44;;;16.64;100.00
19789;BME280;10054;59.332;18.244;2023-09-19T03:43:34;99373.09;;;16.65;100.00
19789;BME280;10054;59.332;18.244;2023-09-19T03:46:04;99362.78;;;16.66;100.00
19789;BME280;10054;59.332;18.244;2023-09-19T03:48:33;99359.95;;;16.68;100.00
19789;BME280;10054;59.332;18.244;2023-09-19T03:51:02;99362.95;;;16.69;100.00
19789;BME280;10054;59.332;18.244;2023-09-19T03:53:32;99354.96;;;16.69;100.00
19789;BME280;10054;59.332;18.244;2023-09-19T03:56:00;99334.16;;;16.68;100.00
19789;BME280;10054;59.332;18.244;2023-09-19T03:58:31;99325.17;;;16.69;100.00
19789;BME280;10054;59.332;18.244;2023-09-19T04:01:02;99315.02;;;16.69;100.00
19789;BME280;10054;59.332;18.244;2023-09-19T04:03:30;99312.69;;;16.70;100.00
19789;BME280;10054;59.332;18.244;2023-09-19T04:06:04;99305.70;;;16.69;100.00
19789;BME280;10054;59.332;18.244;2023-09-19T04:08:33;99314.19;;;16.68;100.00
19789;BME280;10054;59.332;18.244;2023-09-19T04:11:02;99308.53;;;16.67;100.00
19789;BME280;10054;59.332;18.244;2023-09-19T04:13:30;99311.69;;;16.67;100.00
19789;BME280;10054;59.332;18.244;2023-09-19T04:15:59;99312.19;;;16.66;100.00
19789;BME280;10054;59.332;18.244;2023-09-19T04:18:28;99312.52;;;16.67;100.00
19789;BME280;10054;59.332;18.244;2023-09-19T04:20:59;99299.37;;;16.66;100.00
19789;BME280;10054;59.332;18.244;2023-09-19T04:23:30;99297.38;;;16.68;100.00
19789;BME280;10054;59.332;18.244;2023-09-19T04:25:58;99292.05;;;16.68;100.00
19789;BME280;10054;59.332;18.244;2023-09-19T04:28:27;99279.91;;;16.69;100.00
19789;BME280;10054;59.332;18.244;2023-09-19T04:30:56;99281.40;;;16.68;100.00
19789;BME280;10054;59.332;18.244;2023-09-19T04:33:26;99282.23;;;16.68;100.00
19789;BME280;10054;59.332;18.244;2023-09-19T04:35:59;99288.55;;;16.67;100.00
19789;BME280;10054;59.332;18.244;2023-09-19T04:38:28;99277.91;;;16.67;100.00
19789;BME280;10054;59.332;18.244;2023-09-19T04:40:58;99270.41;;;16.67;100.00
19789;BME280;10054;59.332;18.244;2023-09-19T04:43:27;99254.11;;;16.66;100.00
19789;BME280;10054;59.332;18.244;2023-09-19T04:45:56;99250.44;;;16.67;100.00
19789;BME280;10054;59.332;18.244;2023-09-19T04:48:26;99251.61;;;16.68;100.00
19789;BME280;10054;59.332;18.244;2023-09-19T04:50:56;99253.27;;;16.69;100.00
19789;BME280;10054;59.332;18.244;2023-09-19T04:53:25;99252.10;;;16.72;100.00
19789;BME280;10054;59.332;18.244;2023-09-19T04:55:55;99256.43;;;16.73;100.00
19789;BME280;10054;59.332;18.244;2023-09-19T04:58:24;99262.59;;;16.73;100.00
19789;BME280;10054;59.332;18.244;2023-09-19T05:00:53;99261.09;;;16.75;100.00
19789;BME280;10054;59.332;18.244;2023-09-19T05:03:22;99248.94;;;16.77;100.00
19789;BME280;10054;59.332;18.244;2023-09-19T05:05:51;99240.61;;;16.80;100.00
19789;BME280;10054;59.332;18.244;2023-09-19T05:08:19;99248.09;;;16.80;100.00
19789;BME280;10054;59.332;18.244;2023-09-19T05:10:49;99244.44;;;16.81;100.00
19789;BME280;10054;59.332;18.244;2023-09-19T05:13:18;99240.77;;;16.82;100.00
19789;BME280;10054;59.332;18.244;2023-09-19T05:15:47;99237.11;;;16.83;100.00
19789;BME280;10054;59.332;18.244;2023-09-19T05:18:16;99222.13;;;16.82;100.00
19789;BME280;10054;59.332;18.244;2023-09-19T05:20:45;99215.30;;;16.84;100.00
19789;BME280;10054;59.332;18.244;2023-09-19T05:23:13;99208.97;;;16.85;100.00
19789;BME280;10054;59.332;18.244;2023-09-19T05:25:42;99210.13;;;16.86;100.00
19789;BME280;10054;59.332;18.244;2023-09-19T05:28:12;99196.48;;;16.85;100.00
19789;BME280;10054;59.332;18.244;2023-09-19T05:30:42;99189.83;;;16.85;100.00
19789;BME280;10054;59.332;18.244;2023-09-19T05:33:11;99191.16;;;16.85;100.00
19789;BME280;10054;59.332;18.244;2023-09-19T05:35:40;99188.32;;;16.87;100.00
19789;BME280;10054;59.332;18.244;2023-09-19T05:38:09;99190.48;;;16.87;100.00
19789;BME280;10054;59.332;18.244;2023-09-19T05:40:40;99179.17;;;16.85;100.00
19789;BME280;10054;59.332;18.244;2023-09-19T05:43:09;99173.17;;;16.87;100.00
19789;BME280;10054;59.332;18.244;2023-09-19T05:45:38;99167.84;;;16.87;100.00
19789;BME280;10054;59.332;18.244;2023-09-19T05:48:14;99171.66;;;16.89;100.00
19789;BME280;10054;59.332;18.244;2023-09-19T05:50:43;99172.50;;;16.89;100.00
19789;BME280;10054;59.332;18.244;2023-09-19T05:53:14;99172.98;;;16.93;100.00
19789;BME280;10054;59.332;18.244;2023-09-19T05:55:43;99166.14;;;16.98;100.00
19789;BME280;10054;59.332;18.244;2023-09-19T05:58:12;99162.45;;;17.03;100.00
19789;BME280;10054;59.332;18.244;2023-09-19T06:00:45;99154.25;;;17.09;100.00
19789;BME280;10054;59.332;18.244;2023-09-19T06:03:15;99155.39;;;17.15;100.00
19789;BME280;10054;59.332;18.244;2023-09-19T06:05:46;99155.37;;;17.19;100.00
19789;BME280;10054;59.332;18.244;2023-09-19T06:08:16;99152.36;;;17.22;100.00
19789;BME280;10054;59.332;18.244;2023-09-19T06:10:46;99162.52;;;17.22;100.00
19789;BME280;10054;59.332;18.244;2023-09-19T06:13:14;99151.52;;;17.21;100.00
19789;BME280;10054;59.332;18.244;2023-09-19T06:15:43;99145.19;;;17.22;100.00
19789;BME280;10054;59.332;18.244;2023-09-19T06:18:13;99150.19;;;17.21;100.00
19789;BME280;10054;59.332;18.244;2023-09-19T06:20:44;99143.70;;;17.20;100.00
19789;BME280;10054;59.332;18.244;2023-09-19T06:23:13;99133.89;;;17.16;100.00
19789;BME280;10054;59.332;18.244;2023-09-19T06:25:42;99131.91;;;17.14;100.00
19789;BME280;10054;59.332;18.244;2023-09-19T06:28:11;99133.56;;;17.15;100.00
19789;BME280;10054;59.332;18.244;2023-09-19T06:30:40;99128.73;;;17.15;100.00
19789;BME280;10054;59.332;18.244;2023-09-19T06:33:09;99139.07;;;17.14;100.00
19789;BME280;10054;59.332;18.244;2023-09-19T06:35:39;99128.91;;;17.13;100.00
19789;BME280;10054;59.332;18.244;2023-09-19T06:38:09;99127.58;;;17.13;100.00
19789;BME280;10054;59.332;18.244;2023-09-19T06:40:39;99124.09;;;17.13;100.00
19789;BME280;10054;59.332;18.244;2023-09-19T06:43:11;99125.07;;;17.16;100.00
19789;BME280;10054;59.332;18.244;2023-09-19T06:45:39;99122.73;;;17.17;100.00
19789;BME280;10054;59.332;18.244;2023-09-19T06:48:08;99127.39;;;17.19;100.00
19789;BME280;10054;59.332;18.244;2023-09-19T06:50:37;99119.22;;;17.20;100.00
19789;BME280;10054;59.332;18.244;2023-09-19T06:53:07;99122.71;;;17.21;100.00
19789;BME280;10054;59.332;18.244;2023-09-19T06:55:37;99113.39;;;17.21;100.00
19789;BME280;10054;59.332;18.244;2023-09-19T06:58:06;99115.55;;;17.21;100.00
19789;BME280;10054;59.332;18.244;2023-09-19T07:00:35;99116.37;;;17.22;100.00
19789;BME280;10054;59.332;18.244;2023-09-19T07:03:06;99108.55;;;17.20;100.00
19789;BME280;10054;59.332;18.244;2023-09-19T07:05:37;99118.72;;;17.21;100.00
19789;BME280;10054;59.332;18.244;2023-09-19T07:08:07;99130.05;;;17.19;100.00
19789;BME280;10054;59.332;18.244;2023-09-19T07:10:38;99128.06;;;17.17;100.00
19789;BME280;10054;59.332;18.244;2023-09-19T07:13:09;99118.41;;;17.16;100.00
19789;BME280;10054;59.332;18.244;2023-09-19T07:15:38;99115.09;;;17.14;100.00
19789;BME280;10054;59.332;18.244;2023-09-19T07:18:09;99097.44;;;17.13;100.00
19789;BME280;10054;59.332;18.244;2023-09-19T07:20:38;99101.61;;;17.11;100.00
19789;BME280;10054;59.332;18.244;2023-09-19T07:23:07;99106.28;;;17.09;100.00
19789;BME280;10054;59.332;18.244;2023-09-19T07:25:36;99096.84;;;17.06;100.00
19789;BME280;10054;59.332;18.244;2023-09-19T07:28:05;99097.34;;;17.06;100.00
19789;BME280;10054;59.332;18.244;2023-09-19T07:30:37;99089.84;;;17.05;100.00
19789;BME280;10054;59.332;18.244;2023-09-19T07:33:06;99085.02;;;17.05;100.00
19789;BME280;10054;59.332;18.244;2023-09-19T07:35:37;99080.19;;;17.04;100.00
19789;BME280;10054;59.332;18.244;2023-09-19T07:38:09;99066.88;;;17.04;100.00
19789;BME280;10054;59.332;18.244;2023-09-19T07:40:39;99060.21;;;17.04;100.00
19789;BME280;10054;59.332;18.244;2023-09-19T07:43:07;99053.55;;;17.04;100.00
19789;BME280;10054;59.332;18.244;2023-09-19T07:45:36;99047.72;;;17.05;100.00
19789;BME280;10054;59.332;18.244;2023-09-19T07:48:05;99053.88;;;17.05;100.00
19789;BME280;10054;59.332;18.244;2023-09-19T07:50:35;99047.05;;;17.07;100.00
19789;BME280;10054;59.332;18.244;2023-09-19T07:53:04;99052.48;;;17.09;100.00
19789;BME280;10054;59.332;18.244;2023-09-19T07:55:32;99053.97;;;17.12;100.00
19789;BME280;10054;59.332;18.244;2023-09-19T07:58:01;99050.13;;;17.15;100.00
19789;BME280;10054;59.332;18.244;2023-09-19T08:00:31;99040.45;;;17.18;100.00
19789;BME280;10054;59.332;18.244;2023-09-19T08:03:02;99040.59;;;17.20;100.00
19789;BME280;10054;59.332;18.244;2023-09-19T08:05:31;99038.59;;;17.22;100.00
19789;BME280;10054;59.332;18.244;2023-09-19T08:08:00;99031.57;;;17.25;100.00
19789;BME280;10054;59.332;18.244;2023-09-19T08:10:29;99021.89;;;17.28;100.00
19789;BME280;10054;59.332;18.244;2023-09-19T08:12:59;99028.70;;;17.31;100.00
19789;BME280;10054;59.332;18.244;2023-09-19T08:15:29;99030.36;;;17.32;100.00
19789;BME280;10054;59.332;18.244;2023-09-19T08:17:58;99027.66;;;17.36;100.00
19789;BME280;10054;59.332;18.244;2023-09-19T08:20:29;99035.63;;;17.40;100.00
19789;BME280;10054;59.332;18.244;2023-09-19T08:22:58;99024.28;;;17.42;100.00
19789;BME280;10054;59.332;18.244;2023-09-19T08:25:27;99028.25;;;17.46;100.00
19789;BME280;10054;59.332;18.244;2023-09-19T08:27:56;99031.06;;;17.49;100.00
19789;BME280;10054;59.332;18.244;2023-09-19T08:30:27;99027.72;;;17.51;100.00
19789;BME280;10054;59.332;18.244;2023-09-19T08:33:00;99037.38;;;17.52;100.00
19789;BME280;10054;59.332;18.244;2023-09-19T08:35:31;99035.03;;;17.53;100.00
19789;BME280;10054;59.332;18.244;2023-09-19T08:37:59;99035.36;;;17.54;100.00
19789;BME280;10054;59.332;18.244;2023-09-19T08:40:31;99034.53;;;17.53;100.00
19789;BME280;10054;59.332;18.244;2023-09-19T08:43:02;99029.02;;;17.55;100.00
19789;BME280;10054;59.332;18.244;2023-09-19T08:45:31;99010.17;;;17.56;100.00
19789;BME280;10054;59.332;18.244;2023-09-19T08:48:28;99009.49;;;17.58;100.00
19789;BME280;10054;59.332;18.244;2023-09-19T08:51:10;99008.84;;;17.56;100.00
19789;BME280;10054;59.332;18.244;2023-09-19T08:53:58;99013.49;;;17.58;100.00
19789;BME280;10054;59.332;18.244;2023-09-19T08:56:27;99000.48;;;17.59;100.00
19789;BME280;10054;59.332;18.244;2023-09-19T08:59:05;99007.48;;;17.60;100.00
19789;BME280;10054;59.332;18.244;2023-09-19T09:01:39;99004.95;;;17.63;100.00
19789;BME280;10054;59.332;18.244;2023-09-19T09:04:09;99001.60;;;17.65;100.00
19789;BME280;10054;59.332;18.244;2023-09-19T09:06:39;98997.78;;;17.67;100.00
19789;BME280;10054;59.332;18.244;2023-09-19T09:09:10;98990.25;;;17.71;100.00
19789;BME280;10054;59.332;18.244;2023-09-19T09:11:40;98992.73;;;17.72;100.00
19789;BME280;10054;59.332;18.244;2023-09-19T09:14:09;98981.70;;;17.76;100.00
19789;BME280;10054;59.332;18.244;2023-09-19T09:16:38;98976.19;;;17.77;100.00
19789;BME280;10054;59.332;18.244;2023-09-19T09:19:07;98968.83;;;17.79;100.00
19789;BME280;10054;59.332;18.244;2023-09-19T09:21:35;98963.88;;;17.87;100.00
19789;BME280;10054;59.332;18.244;2023-09-19T09:24:28;98952.11;;;17.96;100.00
19789;BME280;10054;59.332;18.244;2023-09-19T09:26:58;98951.80;;;18.10;100.00
19789;BME280;10054;59.332;18.244;2023-09-19T09:29:47;98947.38;;;18.17;100.00
19789;BME280;10054;59.332;18.244;2023-09-19T09:32:27;98946.95;;;18.24;100.00
19789;BME280;10054;59.332;18.244;2023-09-19T09:35:07;98948.94;;;18.26;100.00
19789;BME280;10054;59.332;18.244;2023-09-19T09:37:36;98938.39;;;18.28;100.00
19789;BME280;10054;59.332;18.244;2023-09-19T09:40:07;98934.84;;;18.32;100.00
19789;BME280;10054;59.332;18.244;2023-09-19T09:42:46;98930.78;;;18.36;100.00
19789;BME280;10054;59.332;18.244;2023-09-19T09:45:20;98932.58;;;18.39;100.00
19789;BME280;10054;59.332;18.244;2023-09-19T09:48:03;98924.00;;;18.44;100.00
19789;BME280;10054;59.332;18.244;2023-09-19T09:50:35;98927.63;;;18.47;100.00
19789;BME280;10054;59.332;18.244;2023-09-19T09:53:22;98953.14;;;18.50;100.00
19789;BME280;10054;59.332;18.244;2023-09-19T09:56:08;98958.61;;;18.52;100.00
19789;BME280;10054;59.332;18.244;2023-09-19T09:58:49;98965.74;;;18.56;100.00
19789;BME280;10054;59.332;18.244;2023-09-19T10:01:20;98968.73;;;18.57;100.00
19789;BME280;10054;59.332;18.244;2023-09-19T10:03:50;98956.91;;;18.55;100.00
19789;BME280;10054;59.332;18.244;2023-09-19T10:06:20;98944.98;;;18.58;100.00
19789;BME280;10054;59.332;18.244;2023-09-19T10:09:03;98936.47;;;18.58;100.00
19789;BME280;10054;59.332;18.244;2023-09-19T10:12:07;98947.98;;;18.59;100.00
19789;BME280;10054;59.332;18.244;2023-09-19T10:14:39;98949.80;;;18.62;100.00
19789;BME280;10054;59.332;18.244;2023-09-19T10:17:10;98952.30;;;18.60;100.00
19789;BME280;10054;59.332;18.244;2023-09-19T10:19:55;98947.95;;;18.63;100.00
19789;BME280;10054;59.332;18.244;2023-09-19T10:22:30;98943.95;;;18.63;100.00
19789;BME280;10054;59.332;18.244;2023-09-19T10:25:00;98932.25;;;18.64;100.00
19789;BME280;10054;59.332;18.244;2023-09-19T10:27:29;98933.20;;;18.67;100.00
19789;BME280;10054;59.332;18.244;2023-09-19T10:30:00;98926.28;;;18.73;100.00
19789;BME280;10054;59.332;18.244;2023-09-19T10:32:31;98923.30;;;18.82;100.00
19789;BME280;10054;59.332;18.244;2023-09-19T10:35:01;98921.14;;;18.92;100.00
19789;BME280;10054;59.332;18.244;2023-09-19T10:37:33;98923.56;;;18.98;100.00
19789;BME280;10054;59.332;18.244;2023-09-19T10:40:04;98921.08;;;19.07;100.00
19789;BME280;10054;59.332;18.244;2023-09-19T10:42:38;98921.66;;;19.13;100.00
19789;BME280;10054;59.332;18.244;2023-09-19T10:45:08;98917.38;;;19.19;100.00
19789;BME280;10054;59.332;18.244;2023-09-19T10:47:39;98920.63;;;19.25;100.00
19789;BME280;10054;59.332;18.244;2023-09-19T10:50:08;98924.44;;;19.26;100.00
19789;BME280;10054;59.332;18.244;2023-09-19T10:52:40;98929.21;;;19.31;100.00
19789;BME280;10054;59.332;18.244;2023-09-19T10:55:11;98935.48;;;19.34;100.00
19789;BME280;10054;59.332;18.244;2023-09-19T10:57:44;98931.72;;;19.39;100.00
19789;BME280;10054;59.332;18.244;2023-09-19T11:00:14;98933.17;;;19.42;100.00
19789;BME280;10054;59.332;18.244;2023-09-19T11:06:16;98929.74;;;19.37;100.00
19789;BME280;10054;59.332;18.244;2023-09-19T11:09:00;98920.56;;;19.46;100.00
19789;BME280;10054;59.332;18.244;2023-09-19T11:11:41;98914.78;;;19.53;100.00
19789;BME280;10054;59.332;18.244;2023-09-19T11:28:27;98907.45;;;19.96;100.00
19789;BME280;10054;59.332;18.244;2023-09-19T11:30:45;98906.23;;;20.06;100.00
19789;BME280;10054;59.332;18.244;2023-09-19T11:33:29;98903.07;;;20.13;100.00
19789;BME280;10054;59.332;18.244;2023-09-19T11:36:08;98901.14;;;20.17;100.00
19789;BME280;10054;59.332;18.244;2023-09-19T11:46:55;98905.09;;;20.45;100.00
19789;BME280;10054;59.332;18.244;2023-09-19T11:49:28;98906.86;;;20.49;100.00
19789;BME280;10054;59.332;18.244;2023-09-19T11:51:59;98900.16;;;20.49;100.00
19789;BME280;10054;59.332;18.244;2023-09-19T11:54:36;98885.42;;;20.49;100.00
19789;BME280;10054;59.332;18.244;2023-09-19T11:57:08;98882.97;;;20.54;100.00
19789;BME280;10054;59.332;18.244;2023-09-19T11:59:39;98884.62;;;20.55;100.00
19789;BME280;10054;59.332;18.244;2023-09-19T12:02:08;98884.22;;;20.58;100.00
19789;BME280;10054;59.332;18.244;2023-09-19T12:04:39;98883.39;;;20.57;100.00
19789;BME280;10054;59.332;18.244;2023-09-19T12:07:12;98889.69;;;20.60;100.00
19789;BME280;10054;59.332;18.244;2023-09-19T12:09:45;98885.55;;;20.58;100.00
19789;BME280;10054;59.332;18.244;2023-09-19T12:12:25;98890.29;;;20.56;95.75
19789;BME280;10054;59.332;18.244;2023-09-19T12:14:56;98887.00;;;20.60;93.76
19789;BME280;10054;59.332;18.244;2023-09-19T12:17:38;98888.98;;;20.69;99.49
19789;BME280;10054;59.332;18.244;2023-09-19T12:20:09;98886.62;;;20.70;97.14
19789;BME280;10054;59.332;18.244;2023-09-19T12:22:43;98886.94;;;20.78;97.70
19789;BME280;10054;59.332;18.244;2023-09-19T12:25:13;98896.95;;;20.80;95.17
19789;BME280;10054;59.332;18.244;2023-09-19T12:27:49;98878.69;;;20.73;92.31
19789;BME280;10054;59.332;18.244;2023-09-19T12:30:19;98897.00;;;20.62;91.30
19789;BME280;10054;59.332;18.244;2023-09-19T12:32:48;98888.42;;;20.50;88.77
19789;BME280;10054;59.332;18.244;2023-09-19T12:35:31;98892.19;;;20.38;87.36
19789;BME280;10054;59.332;18.244;2023-09-19T12:38:02;98892.45;;;20.32;83.59
19789;BME280;10054;59.332;18.244;2023-09-19T12:40:31;98883.16;;;20.28;87.55
19789;BME280;10054;59.332;18.244;2023-09-19T12:43:01;98881.51;;;20.27;87.33
19789;BME280;10054;59.332;18.244;2023-09-19T12:45:33;98885.33;;;20.29;87.87
19789;BME280;10054;59.332;18.244;2023-09-19T12:48:24;98884.02;;;20.35;88.42
19789;BME280;10054;59.332;18.244;2023-09-19T12:51:13;98886.69;;;20.35;86.80
19789;BME280;10054;59.332;18.244;2023-09-19T12:53:45;98881.59;;;20.41;85.82
19789;BME280;10054;59.332;18.244;2023-09-19T12:56:17;98879.17;;;20.35;78.57
19789;BME280;10054;59.332;18.244;2023-09-19T12:58:55;98886.69;;;20.35;81.31
19789;BME280;10054;59.332;18.244;2023-09-19T13:01:29;98884.52;;;20.35;78.50
19789;BME280;10054;59.332;18.244;2023-09-19T13:04:17;98891.62;;;20.32;77.94
19789;BME280;10054;59.332;18.244;2023-09-19T13:06:52;98880.77;;;20.23;79.03
19789;BME280;10054;59.332;18.244;2023-09-19T13:09:18;98881.94;;;20.07;79.37
19789;BME280;10054;59.332;18.244;2023-09-19T13:11:50;98878.52;;;19.96;79.68
19789;BME280;10054;59.332;18.244;2023-09-19T13:14:25;98876.71;;;19.86;79.69
19789;BME280;10054;59.332;18.244;2023-09-19T13:17:06;98880.06;;;19.77;80.85
19789;BME280;10054;59.332;18.244;2023-09-19T13:19:47;98895.64;;;19.67;79.65
19789;BME280;10054;59.332;18.244;2023-09-19T13:22:45;98903.19;;;19.57;79.89
19789;BME280;10054;59.332;18.244;2023-09-19T13:25:17;98894.25;;;19.50;81.57
19789;BME280;10054;59.332;18.244;2023-09-19T13:27:47;98905.22;;;19.44;82.14
19789;BME280;10054;59.332;18.244;2023-09-19T13:30:19;98901.28;;;19.40;82.33
19789;BME280;10054;59.332;18.244;2023-09-19T13:32:49;98898.99;;;19.37;82.10
19789;BME280;10054;59.332;18.244;2023-09-19T13:35:18;98896.00;;;19.36;83.43
19789;BME280;10054;59.332;18.244;2023-09-19T13:37:48;98894.66;;;19.36;84.30
19789;BME280;10054;59.332;18.244;2023-09-19T13:40:18;98896.20;;;19.34;85.47
19789;BME280;10054;59.332;18.244;2023-09-19T13:42:46;98902.76;;;19.32;85.62